Assembly, North Carolina
Current Conditions -  °F | °C
As of 3:54 AM on Wednesday 28 Jan 2015 (Local Time) from KAVL Reporting Station
Clear Clear  
Wind Chill: 10°   Ceiling: Unl
Heat Index: 24°   Visibility: 10mi
Dew Point: 15°   Wind: 18mph
Humidity: 69%   Direction: 360°N
Pressure: 30.06"   Gusts: 36mph
Location:  35.5251°N, 82.9723°W
Report Text: KAVL 280854Z AUTO 36016G31KT 10SM CLR M04/M09 A3006 RMK AO2 PK WND 36031/0852 SLP192 T10441094 53012
Loading
Personal Weather Stations






























Interactive Weather Map New forecast layout! Learn more

10-Day Weather Forecast

Advertisements
Track Severe Weather on mobile